Time;durP1;ratioP1;P1;durP2;ratioP2;P2;SDS_P1;SDS_P2;PMS_P1;PMS_P2;Temp;Humidity;BMP_temperature;BMP_pressure;BME280_temperature;BME280_humidity;BME280_pressure;Samples;Min_cycle;Max_cycle;Signal;HPM_P1;HPM_P2
2021/09/27 06:37:58;;;;;;;28.05;14.05;;;16.60;99.90;;;;;;4896296;29;20073;-75
2021/09/27 06:40:24;;;;;;;32.63;13.05;;;16.50;99.90;;;;;;4907610;29;20044;-74
2021/09/27 06:42:50;;;;;;;32.53;14.48;;;16.60;99.90;;;;;;4903720;29;20063;-75
2021/09/27 06:45:16;;;;;;;29.90;13.55;;;16.70;99.90;;;;;;4908524;29;20033;-75
2021/09/27 06:47:44;;;;;;;28.67;13.18;;;16.70;99.90;;;;;;4910737;29;20052;-76
2021/09/27 06:50:14;;;;;;;29.35;12.02;;;16.70;99.90;;;;;;4909502;29;20047;-73
2021/09/27 06:52:39;;;;;;;36.10;13.40;;;16.80;99.90;;;;;;4910100;29;20088;-73
2021/09/27 06:55:07;;;;;;;29.50;13.07;;;16.70;99.90;;;;;;4908266;29;20077;-75
2021/09/27 06:57:33;;;;;;;36.50;13.85;;;16.90;99.90;;;;;;4901630;29;20052;-74
2021/09/27 06:59:58;;;;;;;29.15;14.65;;;16.90;99.90;;;;;;4891169;29;20037;-75
2021/09/27 07:02:24;;;;;;;26.73;12.48;;;16.90;99.90;;;;;;4890738;29;20127;-74
2021/09/27 07:04:51;;;;;;;35.60;13.25;;;17.00;99.90;;;;;;4891160;29;20106;-74
2021/09/27 07:07:17;;;;;;;31.13;13.02;;;17.00;99.90;;;;;;4890916;29;20052;-75
2021/09/27 07:09:43;;;;;;;27.45;12.35;;;17.20;99.90;;;;;;4891424;29;20037;-74
2021/09/27 07:12:16;;;;;;;27.45;12.25;;;17.10;99.90;;;;;;4891418;29;20064;-75
2021/09/27 07:14:42;;;;;;;31.15;13.73;;;17.30;99.90;;;;;;4897700;29;20120;-74
2021/09/27 07:17:08;;;;;;;31.52;11.57;;;17.40;99.90;;;;;;4910875;29;20048;-74
2021/09/27 07:19:40;;;;;;;27.40;11.77;;;17.40;99.90;;;;;;4910113;29;20079;-75
2021/09/27 07:22:08;;;;;;;32.13;13.00;;;17.50;99.90;;;;;;4910062;29;20037;-75
2021/09/27 07:24:35;;;;;;;24.45;12.48;;;17.60;99.90;;;;;;4910319;29;20092;-74
2021/09/27 07:27:00;;;;;;;28.38;12.23;;;17.70;99.90;;;;;;4909947;29;20104;-75
2021/09/27 07:29:26;;;;;;;32.30;12.55;;;17.70;99.90;;;;;;4910632;29;20065;-75
2021/09/27 07:31:53;;;;;;;27.70;13.73;;;17.80;99.90;;;;;;4908291;29;20020;-74
2021/09/27 07:34:20;;;;;;;32.63;11.75;;;17.90;99.90;;;;;;4907475;29;20029;-76
2021/09/27 07:36:47;;;;;;;25.95;12.20;;;18.00;99.90;;;;;;4909590;29;20100;-76
2021/09/27 07:39:13;;;;;;;27.52;12.75;;;18.10;99.90;;;;;;4907411;29;20032;-78
2021/09/27 07:41:39;;;;;;;22.67;11.23;;;18.20;99.90;;;;;;4909771;29;20040;-75
2021/09/27 07:44:06;;;;;;;21.73;10.95;;;18.40;99.90;;;;;;4908535;29;20040;-75
2021/09/27 07:46:31;;;;;;;24.60;10.93;;;18.50;99.90;;;;;;4909895;29;20048;-74
2021/09/27 07:48:57;;;;;;;25.58;12.27;;;18.70;99.90;;;;;;4908461;29;20048;-74
2021/09/27 07:51:24;;;;;;;26.17;11.88;;;18.90;99.90;;;;;;4908693;29;20025;-75
2021/09/27 07:53:50;;;;;;;29.35;11.13;;;19.00;99.90;;;;;;4902747;29;20035;-77
2021/09/27 07:56:17;;;;;;;22.30;10.63;;;19.20;99.90;;;;;;4898103;29;20040;-72
2021/09/27 07:58:43;;;;;;;23.00;10.68;;;19.30;99.90;;;;;;4890040;29;20044;-75
2021/09/27 08:01:10;;;;;;;21.75;10.43;;;19.50;99.90;;;;;;4889552;29;20033;-74
2021/09/27 08:03:36;;;;;;;23.30;10.48;;;19.60;99.90;;;;;;4891111;29;20113;-71
2021/09/27 08:06:02;;;;;;;26.17;10.75;;;19.70;99.90;;;;;;4895530;29;20615;-74
2021/09/27 08:08:27;;;;;;;23.08;10.73;;;19.80;99.90;;;;;;4897167;29;20048;-74
2021/09/27 08:10:53;;;;;;;27.55;10.70;;;19.90;99.90;;;;;;4909760;29;20043;-73
2021/09/27 08:13:20;;;;;;;21.58;10.48;;;19.80;99.90;;;;;;4909703;29;20036;-76
2021/09/27 08:15:50;;;;;;;21.17;9.57;;;19.80;99.90;;;;;;4909490;29;20075;-76
2021/09/27 08:18:21;;;;;;;20.80;10.70;;;19.90;99.90;;;;;;4909297;29;20021;-75
2021/09/27 08:20:54;;;;;;;22.55;10.05;;;19.90;99.90;;;;;;4896006;29;20061;-77
2021/09/27 08:23:22;;;;;;;20.55;10.00;;;19.90;99.90;;;;;;4908521;29;20045;-76
2021/09/27 08:25:49;;;;;;;22.70;10.10;;;20.00;99.90;;;;;;4907303;29;20039;-76
2021/09/27 08:28:16;;;;;;;21.85;8.98;;;19.90;99.90;;;;;;4909247;29;20040;-74
2021/09/27 08:30:48;;;;;;;26.98;9.75;;;19.90;99.90;;;;;;4900587;29;20037;-75
2021/09/27 08:33:15;;;;;;;21.05;8.98;;;19.90;99.90;;;;;;4898214;29;20028;-78
2021/09/27 08:35:42;;;;;;;18.65;9.43;;;19.90;99.90;;;;;;4899754;29;20032;-75
2021/09/27 08:38:12;;;;;;;26.63;8.75;;;20.00;99.90;;;;;;4903109;29;20039;-77
2021/09/27 08:40:51;;;;;;;20.98;8.57;;;20.00;99.90;;;;;;4906074;29;20521;-76
2021/09/27 08:43:54;;;;;;;21.48;8.05;;;20.10;99.90;;;;;;4906290;29;20409;-76
2021/09/27 08:46:26;;;;;;;20.30;8.98;;;20.10;99.90;;;;;;4908188;29;20036;-77
2021/09/27 08:49:16;;;;;;;20.02;8.20;;;20.10;99.90;;;;;;4895802;29;20096;-78
2021/09/27 08:51:43;;;;;;;19.90;8.77;;;20.20;99.90;;;;;;4903335;29;20202;-80
2021/09/27 08:54:16;;;;;;;19.92;9.23;;;20.30;99.90;;;;;;4895560;29;20029;-75
2021/09/27 08:56:58;;;;;;;17.85;9.18;;;20.30;99.90;;;;;;4904892;29;20529;-76
2021/09/27 08:59:35;;;;;;;20.40;8.82;;;20.30;99.90;;;;;;4907613;29;20043;-81
2021/09/27 09:02:40;;;;;;;18.40;8.73;;;20.40;99.90;;;;;;4908544;29;20036;-78
2021/09/27 09:05:25;;;;;;;17.77;8.82;;;20.40;99.90;;;;;;4908526;29;20032;-81
2021/09/27 09:08:16;;;;;;;15.75;8.25;;;20.50;99.90;;;;;;4908553;29;20405;-79
2021/09/27 09:11:04;;;;;;;16.70;8.02;;;20.60;99.90;;;;;;4908590;29;20036;-78
2021/09/27 09:13:39;;;;;;;16.38;8.30;;;20.50;99.90;;;;;;4907107;29;20061;-78
2021/09/27 09:16:08;;;;;;;21.77;8.93;;;20.50;99.90;;;;;;4902763;29;20029;-75
2021/09/27 09:18:45;;;;;;;18.88;8.32;;;20.50;99.90;;;;;;4895957;29;20033;-76
2021/09/27 09:21:24;;;;;;;14.52;7.13;;;20.50;99.90;;;;;;4907164;29;20039;-79
2021/09/27 09:23:57;;;;;;;14.48;7.63;;;20.50;99.90;;;;;;4908460;29;20060;-73
2021/09/27 09:26:45;;;;;;;19.17;8.17;;;20.50;99.90;;;;;;4901645;29;20139;-73
2021/09/27 09:29:16;;;;;;;17.75;8.23;;;20.60;99.90;;;;;;4906017;29;20336;-76
2021/09/27 09:31:47;;;;;;;15.07;7.68;;;20.80;99.90;;;;;;4897375;29;20072;-76
2021/09/27 09:34:22;;;;;;;14.38;7.20;;;20.90;99.90;;;;;;4907333;29;20036;-73
2021/09/27 09:36:54;;;;;;;15.68;7.68;;;21.10;99.90;;;;;;4901688;29;20059;-74
2021/09/27 09:39:30;;;;;;;11.75;6.70;;;21.30;99.90;;;;;;4903519;29;20550;-74
2021/09/27 09:42:05;;;;;;;12.98;5.90;;;21.40;99.90;;;;;;4889890;29;20040;-73
2021/09/27 09:44:42;;;;;;;15.02;6.25;;;21.60;99.90;;;;;;4889375;29;20128;-73
2021/09/27 09:47:19;;;;;;;12.02;6.70;;;21.60;99.90;;;;;;4889198;29;20045;-75
2021/09/27 09:49:50;;;;;;;15.10;6.30;;;21.60;99.90;;;;;;4888531;29;20507;-74
2021/09/27 09:52:47;;;;;;;10.23;6.25;;;21.60;99.90;;;;;;4888942;29;20033;-77
2021/09/27 09:55:16;;;;;;;14.30;6.95;;;21.60;99.90;;;;;;4888475;29;20518;-76
2021/09/27 09:57:53;;;;;;;13.95;6.65;;;21.60;99.90;;;;;;4889881;29;20089;-75
2021/09/27 10:00:42;;;;;;;13.98;7.22;;;21.60;99.90;;;;;;4888899;29;20053;-74
2021/09/27 10:03:14;;;;;;;17.63;6.80;;;21.70;99.90;;;;;;4893437;29;20100;-75
2021/09/27 10:05:50;;;;;;;11.50;6.15;;;21.70;99.90;;;;;;4893503;29;20036;-72
2021/09/27 10:08:24;;;;;;;22.23;6.00;;;21.60;99.90;;;;;;4892382;29;20037;-78
2021/09/27 10:11:09;;;;;;;10.13;5.57;;;21.50;99.90;;;;;;4891446;29;20068;-73
2021/09/27 10:13:44;;;;;;;15.43;6.07;;;21.40;99.90;;;;;;4893025;29;20057;-74
2021/09/27 10:16:36;;;;;;;12.88;6.00;;;21.30;99.90;;;;;;4893227;29;20025;-76
2021/09/27 10:19:26;;;;;;;11.63;5.55;;;21.20;99.90;;;;;;4891127;29;20044;-78
2021/09/27 10:22:17;;;;;;;16.15;6.63;;;21.20;99.90;;;;;;4891460;29;20037;-75
2021/09/27 10:24:47;;;;;;;11.20;6.85;;;21.20;99.90;;;;;;4902196;29;20032;-75
2021/09/27 10:27:36;;;;;;;11.88;6.45;;;21.30;99.90;;;;;;4909834;29;20136;-78
2021/09/27 10:30:09;;;;;;;14.35;6.30;;;21.40;99.90;;;;;;4909824;29;20046;-74
2021/09/27 10:32:44;;;;;;;14.88;7.13;;;21.60;99.90;;;;;;4910697;29;20532;-79
2021/09/27 10:35:30;;;;;;;16.40;6.68;;;21.80;99.90;;;;;;4911040;29;20037;-74
2021/09/27 10:38:42;;;;;;;10.95;6.40;;;21.90;99.90;;;;;;4911214;29;20076;-73
2021/09/27 10:41:16;;;;;;;9.77;5.43;;;22.00;99.90;;;;;;4866926;29;20083;-74
2021/09/27 10:43:43;;;;;;;12.77;5.60;;;21.90;99.90;;;;;;4851713;29;20045;-73
2021/09/27 10:46:09;;;;;;;14.80;5.97;;;21.80;99.90;;;;;;4879184;29;20049;-73
2021/09/27 10:48:39;;;;;;;11.15;5.57;;;21.80;99.90;;;;;;4909253;29;20449;-74
2021/09/27 10:51:07;;;;;;;11.30;5.50;;;21.70;99.90;;;;;;4910471;29;20120;-79
2021/09/27 10:53:34;;;;;;;11.27;5.28;;;21.60;99.90;;;;;;4911205;29;20029;-77
2021/09/27 10:56:18;;;;;;;10.65;5.25;;;21.60;99.90;;;;;;4909388;29;20524;-79
2021/09/27 10:58:53;;;;;;;26.85;4.90;;;21.60;99.90;;;;;;4911140;29;20061;-74
2021/09/27 11:01:52;;;;;;;11.32;5.65;;;21.70;99.90;;;;;;4910793;29;20033;-74
2021/09/27 11:04:21;;;;;;;11.00;5.40;;;21.80;99.90;;;;;;4844900;29;20044;-77
2021/09/27 11:06:57;;;;;;;9.20;4.50;;;21.90;99.90;;;;;;4909752;29;20043;-74
2021/09/27 11:09:26;;;;;;;11.90;4.95;;;21.80;99.90;;;;;;4909062;29;20040;-73
2021/09/27 11:12:08;;;;;;;8.25;4.95;;;21.90;99.90;;;;;;4909217;29;20033;-73
2021/09/27 11:14:38;;;;;;;13.05;6.13;;;21.70;99.90;;;;;;4910150;29;20036;-74
2021/09/27 11:17:06;;;;;;;12.23;5.97;;;21.70;99.90;;;;;;4910344;29;20028;-75
2021/09/27 11:19:32;;;;;;;9.48;5.05;;;21.70;99.90;;;;;;4909007;29;20041;-73
2021/09/27 11:22:18;;;;;;;10.50;5.25;;;21.90;99.90;;;;;;4909227;29;20025;-76
2021/09/27 11:24:44;;;;;;;11.10;6.05;;;22.10;99.90;;;;;;4892661;29;20131;-76
2021/09/27 11:27:14;;;;;;;14.95;6.32;;;22.60;99.90;;;;;;4910458;29;20068;-73
2021/09/27 11:29:52;;;;;;;19.45;6.47;;;22.90;99.90;;;;;;4910662;29;20040;-73
2021/09/27 11:32:28;;;;;;;15.93;5.60;;;23.00;99.90;;;;;;4910322;29;20040;-76
2021/09/27 11:35:26;;;;;;;14.90;5.43;;;22.90;99.90;;;;;;4910127;29;20048;-76
2021/09/27 11:37:52;;;;;;;8.13;4.75;;;22.90;99.90;;;;;;4910047;29;20052;-74
2021/09/27 11:40:29;;;;;;;15.32;5.68;;;22.90;99.90;;;;;;4910084;29;20064;-73
2021/09/27 11:43:21;;;;;;;10.15;5.40;;;22.70;99.90;;;;;;4910128;29;20043;-75
2021/09/27 11:46:07;;;;;;;11.77;6.18;;;22.60;99.90;;;;;;4908391;29;20025;-75
2021/09/27 11:48:43;;;;;;;10.85;5.00;;;22.30;99.90;;;;;;4908735;29;20450;-76
2021/09/27 11:51:09;;;;;;;10.32;6.00;;;22.20;99.90;;;;;;4910103;29;20025;-75
2021/09/27 11:53:50;;;;;;;10.50;5.22;;;22.20;99.90;;;;;;4909864;29;20043;-77
2021/09/27 11:56:30;;;;;;;9.93;4.78;;;22.10;99.90;;;;;;4910380;29;20092;-75
2021/09/27 11:59:03;;;;;;;10.48;4.30;;;22.00;99.90;;;;;;4909682;29;20071;-75
2021/09/27 12:01:53;;;;;;;8.23;4.55;;;21.80;99.90;;;;;;4909718;29;20036;-75
2021/09/27 12:04:57;;;;;;;7.40;4.80;;;21.60;99.90;;;;;;4909854;29;20036;-74
2021/09/27 12:07:37;;;;;;;9.00;4.78;;;21.60;99.90;;;;;;4891432;29;20060;-75
2021/09/27 12:10:10;;;;;;;7.40;4.30;;;21.50;99.90;;;;;;4909681;29;20125;-75
2021/09/27 12:12:41;;;;;;;8.50;4.70;;;21.40;99.90;;;;;;4909432;29;20028;-73
2021/09/27 12:15:07;;;;;;;9.85;4.63;;;21.30;99.90;;;;;;4908278;29;20035;-74
2021/09/27 12:17:37;;;;;;;10.35;5.03;;;21.30;99.90;;;;;;4909416;29;20029;-76
2021/09/27 12:20:17;;;;;;;7.53;4.32;;;21.30;99.90;;;;;;4907710;29;20465;-72
2021/09/27 12:22:51;;;;;;;8.45;5.05;;;21.30;99.90;;;;;;4908739;29;20041;-73
2021/09/27 12:25:26;;;;;;;5.68;3.95;;;21.40;99.90;;;;;;4908341;29;20036;-76
2021/09/27 12:28:00;;;;;;;8.85;4.53;;;21.50;99.90;;;;;;4908395;29;20075;-74
2021/09/27 12:30:28;;;;;;;8.98;4.43;;;21.60;99.90;;;;;;4899747;29;20029;-74
2021/09/27 12:33:01;;;;;;;6.90;4.00;;;22.00;99.90;;;;;;4903724;29;20031;-77
2021/09/27 12:35:40;;;;;;;9.27;4.65;;;22.60;99.90;;;;;;4908484;29;20033;-76
2021/09/27 15:16:21;;;;;;;8.75;4.80;;;21.10;99.90;;;;;;4922272;23;20101;-74
2021/09/27 15:18:46;;;;;;;13.13;5.88;;;21.10;99.90;;;;;;4884206;29;20132;-77
2021/09/27 15:21:15;;;;;;;9.00;5.15;;;21.10;99.90;;;;;;4874106;29;20037;-77
2021/09/27 15:23:42;;;;;;;9.85;5.18;;;21.00;99.90;;;;;;4887121;29;20045;-74
2021/09/27 15:26:14;;;;;;;10.23;5.10;;;21.00;99.90;;;;;;4873985;29;20062;-75
2021/09/27 15:28:43;;;;;;;11.10;4.63;;;21.00;99.90;;;;;;4888358;29;20040;-77
2021/09/27 15:31:12;;;;;;;15.90;5.50;;;21.00;99.90;;;;;;4874047;29;20045;-74
2021/09/27 15:33:39;;;;;;;8.98;4.82;;;20.90;99.90;;;;;;4890539;29;20405;-77
2021/09/27 15:36:10;;;;;;;11.23;5.28;;;20.90;99.90;;;;;;4891265;29;20032;-77
2021/09/27 15:38:37;;;;;;;9.13;5.57;;;20.90;99.90;;;;;;4890583;29;20525;-76
2021/09/27 15:41:08;;;;;;;9.77;5.22;;;20.90;99.90;;;;;;4891575;29;20036;-75
2021/09/27 15:43:34;;;;;;;8.35;4.97;;;20.80;99.90;;;;;;4891460;29;20481;-74
2021/09/27 15:46:00;;;;;;;12.63;5.13;;;20.80;99.90;;;;;;4886909;29;20207;-78
2021/09/27 15:48:26;;;;;;;10.95;5.32;;;20.80;99.90;;;;;;4890652;29;20045;-75
2021/09/27 15:50:52;;;;;;;9.85;4.60;;;20.80;99.90;;;;;;4891802;29;20040;-77
2021/09/27 15:53:18;;;;;;;10.80;5.85;;;20.70;99.90;;;;;;4891415;29;20116;-72
2021/09/27 15:55:47;;;;;;;8.68;4.93;;;20.70;99.90;;;;;;4890600;29;20060;-78
2021/09/27 15:58:19;;;;;;;12.90;4.88;;;20.70;99.90;;;;;;4891002;29;20037;-72
2021/09/27 16:00:45;;;;;;;11.27;5.95;;;20.70;99.90;;;;;;4890574;29;20033;-77
2021/09/27 16:03:13;;;;;;;7.65;4.40;;;20.70;99.90;;;;;;4874874;29;20044;-73
2021/09/27 16:05:40;;;;;;;8.65;4.45;;;20.70;99.90;;;;;;4891475;29;20029;-76
2021/09/27 16:08:06;;;;;;;8.75;5.00;;;20.60;99.90;;;;;;4888639;29;20085;-76
2021/09/27 16:10:33;;;;;;;9.48;4.72;;;20.60;99.90;;;;;;4891482;29;20070;-77
2021/09/27 16:13:00;;;;;;;9.27;4.40;;;20.60;99.90;;;;;;4891430;29;20029;-76
2021/09/27 16:15:32;;;;;;;13.38;4.82;;;20.60;99.90;;;;;;4874377;29;20062;-77
2021/09/27 16:17:59;;;;;;;12.25;4.88;;;20.50;99.90;;;;;;4891375;29;20052;-75
2021/09/27 16:20:27;;;;;;;8.30;4.18;;;20.50;99.90;;;;;;4890915;29;20033;-74
2021/09/27 16:22:52;;;;;;;7.22;4.05;;;20.40;99.90;;;;;;4891067;29;20088;-75
2021/09/27 16:25:18;;;;;;;12.98;4.72;;;20.50;99.90;;;;;;4891222;29;20086;-73
2021/09/27 16:27:44;;;;;;;9.85;4.45;;;20.40;99.90;;;;;;4890637;29;20101;-74
2021/09/27 16:30:11;;;;;;;8.52;4.45;;;20.40;99.90;;;;;;4889424;29;20485;-75
2021/09/27 16:32:36;;;;;;;9.38;4.90;;;20.30;99.90;;;;;;4889434;29;20037;-76
2021/09/27 16:35:03;;;;;;;6.90;3.88;;;20.30;99.90;;;;;;4890324;29;20033;-76
2021/09/27 16:37:29;;;;;;;8.60;4.35;;;20.30;99.90;;;;;;4890228;29;20045;-75
2021/09/27 16:39:55;;;;;;;8.00;4.40;;;20.20;99.90;;;;;;4890036;29;20043;-75
2021/09/27 16:42:20;;;;;;;7.75;4.38;;;20.20;99.90;;;;;;4873960;29;20036;-76
2021/09/27 16:44:46;;;;;;;8.93;3.50;;;20.20;99.90;;;;;;4874379;29;20033;-74
2021/09/27 16:47:14;;;;;;;6.80;3.67;;;20.20;99.90;;;;;;4890295;29;20045;-76
2021/09/27 16:49:41;;;;;;;9.15;4.10;;;20.20;99.90;;;;;;4890562;29;20423;-77
2021/09/27 16:52:07;;;;;;;6.10;3.65;;;20.10;99.90;;;;;;4873903;29;20029;-73
2021/09/27 16:54:34;;;;;;;8.93;4.25;;;20.10;99.90;;;;;;4890522;29;20087;-78
2021/09/27 16:57:00;;;;;;;5.63;3.40;;;20.10;99.90;;;;;;4873980;29;20474;-74
2021/09/27 16:59:26;;;;;;;8.00;3.92;;;20.10;99.90;;;;;;4874220;29;20044;-77
2021/09/27 17:01:51;;;;;;;9.52;4.40;;;20.10;99.90;;;;;;4890251;29;20040;-77
2021/09/27 17:04:18;;;;;;;8.43;3.60;;;20.00;99.90;;;;;;4872418;29;20037;-77
2021/09/27 17:06:44;;;;;;;8.43;4.13;;;20.00;99.90;;;;;;4889274;29;20029;-78
2021/09/27 17:09:10;;;;;;;6.25;3.50;;;20.00;99.90;;;;;;4889599;29;20036;-76
2021/09/27 17:11:37;;;;;;;6.50;3.92;;;20.00;99.90;;;;;;4890342;29;20025;-75
2021/09/27 17:19:23;;;;;;;9.70;4.43;;;19.90;99.90;;;;;;4890488;29;20036;-75
2021/09/27 17:21:49;;;;;;;7.05;3.75;;;19.90;99.90;;;;;;4889017;29;20033;-76
2021/09/27 17:24:16;;;;;;;6.30;3.63;;;19.80;99.90;;;;;;4866212;29;20064;-76
2021/09/27 17:26:41;;;;;;;10.85;4.32;;;19.70;99.90;;;;;;4864716;29;20043;-78
2021/09/27 17:29:10;;;;;;;5.32;3.20;;;19.80;99.90;;;;;;4866395;29;20060;-75
2021/09/27 17:31:41;;;;;;;6.93;3.30;;;19.70;99.90;;;;;;4872003;29;20041;-77
2021/09/27 17:34:07;;;;;;;5.55;2.97;;;19.70;99.90;;;;;;4890222;29;20037;-76
2021/09/27 17:36:33;;;;;;;5.85;2.95;;;19.70;99.90;;;;;;4889861;29;20062;-75
2021/09/27 17:39:03;;;;;;;5.88;2.80;;;19.70;99.90;;;;;;4885334;29;20030;-78
2021/09/27 17:41:29;;;;;;;6.28;3.35;;;19.70;99.90;;;;;;4854922;29;20132;-77
2021/09/27 17:43:55;;;;;;;6.10;2.92;;;19.80;99.90;;;;;;4871486;29;20065;-76
2021/09/27 17:46:21;;;;;;;6.68;3.13;;;19.70;99.90;;;;;;4871391;29;20045;-77
2021/09/27 17:48:46;;;;;;;6.22;3.08;;;19.70;99.90;;;;;;4854838;29;20128;-74
2021/09/27 17:51:12;;;;;;;4.47;2.80;;;19.70;99.90;;;;;;4872564;29;20045;-76
2021/09/27 17:53:38;;;;;;;5.88;2.60;;;19.70;99.90;;;;;;4878399;29;20041;-78
2021/09/27 17:56:04;;;;;;;4.55;2.58;;;19.60;99.90;;;;;;4878825;29;20037;-79
2021/09/27 17:58:31;;;;;;;5.88;3.13;;;19.60;99.90;;;;;;4878437;29;20029;-75
2021/09/27 18:00:58;;;;;;;5.55;3.28;;;19.50;99.90;;;;;;4874779;29;20029;-79
2021/09/27 18:03:24;;;;;;;6.45;2.92;;;19.50;99.90;;;;;;4861111;29;20494;-75
2021/09/27 18:05:50;;;;;;;6.78;3.25;;;19.50;99.90;;;;;;4854965;29;20029;-79
2021/09/27 18:08:16;;;;;;;10.52;3.63;;;19.40;99.90;;;;;;4881114;29;20045;-75
2021/09/27 18:10:43;;;;;;;9.60;2.38;;;19.40;99.90;;;;;;4872957;29;20448;-78
2021/09/27 18:13:09;;;;;;;4.07;2.63;;;19.40;99.90;;;;;;4884076;29;20043;-79
2021/09/27 18:15:35;;;;;;;6.43;2.42;;;19.40;99.90;;;;;;4854505;29;20029;-79
2021/09/27 18:18:01;;;;;;;11.63;3.45;;;19.40;99.90;;;;;;4858291;29;20052;-78
2021/09/27 18:20:30;;;;;;;7.25;3.17;;;19.30;99.90;;;;;;4880834;29;20034;-79
2021/09/27 18:22:57;;;;;;;5.43;2.63;;;19.30;99.90;;;;;;4869702;29;20363;-78
2021/09/27 18:25:26;;;;;;;8.05;3.60;;;19.30;99.90;;;;;;4892891;29;20025;-77
2021/09/27 18:27:53;;;;;;;7.95;3.50;;;19.20;99.90;;;;;;4878124;29;20065;-76
2021/09/27 18:30:21;;;;;;;7.55;3.10;;;19.20;99.90;;;;;;4857807;29;20036;-76
2021/09/27 18:32:47;;;;;;;6.90;3.75;;;19.10;99.90;;;;;;4885735;29;20029;-74
2021/09/27 18:35:15;;;;;;;5.72;3.33;;;19.00;99.90;;;;;;4887263;29;20037;-77
2021/09/27 18:37:41;;;;;;;7.55;3.38;;;18.90;99.90;;;;;;4889949;29;20029;-77
2021/09/27 18:40:08;;;;;;;5.43;2.75;;;18.80;99.90;;;;;;4873779;29;20030;-74
2021/09/27 18:42:34;;;;;;;6.20;2.83;;;18.80;99.90;;;;;;4890291;29;20056;-74
2021/09/27 18:44:59;;;;;;;6.30;2.97;;;18.70;99.90;;;;;;4892760;29;20029;-75
2021/09/27 18:47:25;;;;;;;5.60;2.72;;;18.60;99.90;;;;;;4892525;29;20045;-76
2021/09/27 18:49:51;;;;;;;4.90;2.80;;;18.60;99.90;;;;;;4893002;29;20029;-75
2021/09/27 18:52:17;;;;;;;10.25;3.05;;;18.60;99.90;;;;;;4892892;29;20081;-76
2021/09/27 18:54:42;;;;;;;3.75;2.50;;;18.50;99.90;;;;;;4875138;29;20033;-76
2021/09/27 18:57:08;;;;;;;4.43;2.38;;;18.40;99.90;;;;;;4874573;29;20451;-76
2021/09/27 18:59:34;;;;;;;5.57;2.83;;;18.40;99.90;;;;;;4865309;29;20401;-75
2021/09/27 19:02:00;;;;;;;4.88;2.53;;;18.30;99.90;;;;;;4875678;29;20039;-74
2021/09/27 19:04:25;;;;;;;5.82;3.08;;;18.20;99.90;;;;;;4892809;29;20140;-78
2021/09/27 19:06:51;;;;;;;8.43;3.50;;;18.10;99.90;;;;;;4892362;29;20426;-76
2021/09/27 19:09:17;;;;;;;5.93;3.08;;;18.00;99.90;;;;;;4892563;29;20044;-75
2021/09/27 19:11:43;;;;;;;5.53;3.63;;;17.90;99.90;;;;;;4892547;29;20040;-76
2021/09/27 19:14:09;;;;;;;6.13;3.53;;;17.90;99.90;;;;;;4891888;29;20033;-77
2021/09/27 19:16:35;;;;;;;3.72;1.40;;;17.80;99.90;;;;;;4872818;29;20132;-73
2021/09/27 19:19:01;;;;;;;2.97;1.50;;;17.50;99.90;;;;;;4887335;29;20044;-77
2021/09/27 19:21:28;;;;;;;1.95;1.27;;;17.30;99.90;;;;;;4884316;29;20068;-78
2021/09/27 19:23:55;;;;;;;10.50;1.70;;;17.10;99.90;;;;;;4883952;29;20029;-74
2021/09/27 19:26:23;;;;;;;4.15;1.50;;;16.90;99.90;;;;;;4870027;29;20033;-74
2021/09/27 19:28:49;;;;;;;2.22;0.95;;;16.90;99.90;;;;;;4887640;29;20041;-76
2021/09/27 19:31:21;;;;;;;2.75;1.30;;;16.60;99.90;;;;;;4887937;29;20034;-74
2021/09/27 19:33:47;;;;;;;16.52;2.03;;;16.50;99.90;;;;;;4867122;29;20039;-74
2021/09/27 19:36:13;;;;;;;4.10;1.38;;;16.40;99.90;;;;;;4877805;29;20136;-78
2021/09/27 19:38:38;;;;;;;4.05;1.40;;;16.30;99.90;;;;;;4869460;29;21436;-76
2021/09/27 19:41:06;;;;;;;4.20;1.45;;;16.20;99.90;;;;;;4880002;29;20025;-75
2021/09/27 19:43:32;;;;;;;2.22;1.10;;;16.20;99.90;;;;;;4880347;29;20049;-75
2021/09/27 19:45:59;;;;;;;3.88;1.35;;;16.10;99.90;;;;;;4865950;29;20021;-75
2021/09/27 19:48:25;;;;;;;5.93;1.13;;;16.00;99.90;;;;;;4880812;29;20076;-73
2021/09/27 19:50:53;;;;;;;1.23;0.60;;;16.00;99.90;;;;;;4881924;29;20025;-74
2021/09/27 19:53:18;;;;;;;2.47;0.93;;;15.90;99.90;;;;;;4882755;29;20500;-74
2021/09/27 19:55:45;;;;;;;1.98;0.82;;;15.80;99.90;;;;;;4880483;29;20062;-72
2021/09/27 19:58:11;;;;;;;1.67;0.88;;;15.80;99.90;;;;;;4881637;29;20025;-73
2021/09/27 20:00:39;;;;;;;1.95;0.85;;;15.70;99.90;;;;;;4882458;29;20029;-72
2021/09/27 20:03:08;;;;;;;1.52;0.75;;;15.70;99.90;;;;;;4880346;29;20026;-73
2021/09/27 20:05:34;;;;;;;3.08;1.08;;;15.60;99.90;;;;;;4883195;29;20029;-76
2021/09/27 20:08:02;;;;;;;5.63;1.23;;;15.60;99.90;;;;;;4863995;29;20073;-73
2021/09/27 20:10:32;;;;;;;0.77;0.50;;;15.60;99.90;;;;;;4881700;29;20417;-75
2021/09/27 20:12:58;;;;;;;1.73;0.85;;;15.50;99.90;;;;;;4883565;29;20096;-76
2021/09/27 20:15:32;;;;;;;2.58;0.85;;;15.50;99.90;;;;;;4890746;29;20048;-76
2021/09/27 20:18:02;;;;;;;5.72;1.08;;;15.40;99.90;;;;;;4885505;29;20511;-76
2021/09/27 20:20:30;;;;;;;1.35;0.60;;;15.40;99.90;;;;;;4882745;29;20409;-76
2021/09/27 20:22:56;;;;;;;1.77;1.00;;;15.20;99.90;;;;;;4864236;29;20037;-75
2021/09/27 20:25:24;;;;;;;5.05;0.98;;;15.20;99.90;;;;;;4863175;29;20524;-74
2021/09/27 20:27:51;;;;;;;4.35;1.27;;;15.20;99.90;;;;;;4881634;29;20037;-75
2021/09/27 20:30:20;;;;;;;4.60;1.20;;;15.10;99.90;;;;;;4882392;29;20263;-74
2021/09/27 20:32:45;;;;;;;6.78;1.00;;;15.10;99.90;;;;;;4868279;29;20044;-73
2021/09/27 20:35:11;;;;;;;1.38;1.05;;;15.10;99.90;;;;;;4866235;29;20059;-74
2021/09/27 20:37:38;;;;;;;3.00;1.10;;;15.10;99.90;;;;;;4880481;29;20037;-74
2021/09/27 20:40:05;;;;;;;1.85;1.00;;;15.10;99.90;;;;;;4865015;29;20062;-73
2021/09/27 20:42:32;;;;;;;6.18;1.08;;;15.10;99.90;;;;;;4880779;29;20058;-74
2021/09/27 20:44:59;;;;;;;8.82;0.85;;;15.10;99.90;;;;;;4863595;29;20389;-75
2021/09/27 20:47:24;;;;;;;2.72;1.15;;;15.10;99.90;;;;;;4881595;29;20039;-74
2021/09/27 20:49:50;;;;;;;7.55;1.20;;;15.20;99.90;;;;;;4879481;29;20033;-74
2021/09/27 20:52:16;;;;;;;1.48;0.82;;;15.10;99.90;;;;;;4864107;29;20489;-74
2021/09/27 20:54:45;;;;;;;2.33;1.35;;;15.10;99.90;;;;;;4879468;29;20033;-74
2021/09/27 20:57:10;;;;;;;7.88;1.42;;;15.10;99.90;;;;;;4880707;29;20022;-74
2021/09/27 20:59:37;;;;;;;2.70;1.33;;;15.10;99.90;;;;;;4868014;29;20041;-74
2021/09/27 21:02:03;;;;;;;1.88;0.98;;;15.10;99.90;;;;;;4881521;29;20086;-73
2021/09/27 21:04:29;;;;;;;5.75;1.52;;;15.10;99.90;;;;;;4881800;29;20021;-73
2021/09/27 21:06:54;;;;;;;4.03;1.73;;;15.20;99.90;;;;;;4865797;29;20021;-74
2021/09/27 21:09:20;;;;;;;3.33;1.38;;;15.20;99.90;;;;;;4890555;29;20066;-74
2021/09/27 21:11:46;;;;;;;2.97;1.30;;;15.20;99.90;;;;;;4890664;29;20140;-73
2021/09/27 21:14:12;;;;;;;1.73;1.02;;;15.30;99.90;;;;;;4890150;29;20490;-74
2021/09/27 21:16:38;;;;;;;1.63;1.40;;;15.20;99.90;;;;;;4890169;29;20057;-74
2021/09/27 21:19:03;;;;;;;1.55;0.95;;;15.20;99.90;;;;;;4890542;29;20036;-74
2021/09/27 21:21:29;;;;;;;2.33;1.02;;;15.30;99.90;;;;;;4890174;29;20029;-74
2021/09/27 21:23:55;;;;;;;4.38;1.50;;;15.20;99.90;;;;;;4890810;29;20033;-74
2021/09/27 21:26:21;;;;;;;18.15;1.40;;;15.20;99.90;;;;;;4873257;29;20086;-73
2021/09/27 21:28:47;;;;;;;2.47;1.00;;;15.20;99.90;;;;;;4889846;29;20055;-73
2021/09/27 21:31:13;;;;;;;4.15;1.67;;;15.10;99.90;;;;;;4889676;29;20053;-73
2021/09/27 21:33:39;;;;;;;3.47;1.27;;;15.10;99.90;;;;;;4873212;29;20033;-75
2021/09/27 21:36:06;;;;;;;11.15;1.65;;;15.20;99.90;;;;;;4889872;29;20588;-74
2021/09/27 21:38:32;;;;;;;9.18;1.00;;;15.10;99.90;;;;;;4890072;29;20169;-75
2021/09/27 21:40:58;;;;;;;2.67;1.58;;;15.20;99.90;;;;;;4890444;29;20041;-73
2021/09/27 21:43:24;;;;;;;2.30;1.52;;;15.10;99.90;;;;;;4889941;29;20097;-75
2021/09/27 21:45:49;;;;;;;5.88;1.63;;;15.10;99.90;;;;;;4890314;29;20861;-71
2021/09/27 21:48:15;;;;;;;8.77;1.90;;;15.10;99.90;;;;;;4889046;29;20049;-73
2021/09/27 21:50:42;;;;;;;1.77;1.25;;;15.10;99.90;;;;;;4873306;29;20169;-73
2021/09/27 21:53:08;;;;;;;7.97;1.38;;;15.00;99.90;;;;;;4890024;29;20047;-72
2021/09/27 21:55:34;;;;;;;7.13;1.10;;;15.10;99.90;;;;;;4889516;29;20033;-72
2021/09/27 21:58:01;;;;;;;4.88;1.90;;;15.10;99.90;;;;;;4891623;29;20025;-74
2021/09/27 22:00:33;;;;;;;2.28;1.35;;;15.00;99.90;;;;;;4893287;29;20029;-73
2021/09/27 22:02:59;;;;;;;2.10;1.52;;;15.00;99.90;;;;;;4876783;29;20439;-73
2021/09/27 22:05:25;;;;;;;1.90;1.13;;;15.00;99.90;;;;;;4893739;29;20063;-72
2021/09/27 22:07:53;;;;;;;6.60;1.92;;;15.00;99.90;;;;;;4893469;29;20037;-74
2021/09/27 22:10:19;;;;;;;2.53;1.10;;;15.00;99.90;;;;;;4893263;29;20029;-73
2021/09/27 22:12:44;;;;;;;3.25;1.33;;;14.90;99.90;;;;;;4893653;29;20033;-73
2021/09/27 22:15:10;;;;;;;4.13;1.13;;;14.90;99.90;;;;;;4893592;29;20085;-71